Time;durP1;ratioP1;P1;durP2;ratioP2;P2;SDS_P1;SDS_P2;PMS_P1;PMS_P2;Temp;Humidity;BMP_temperature;BMP_pressure;BME280_temperature;BME280_humidity;BME280_pressure;Samples;Min_cycle;Max_cycle;Signal;HPM_P1;HPM_P2
2022/09/04 00:00:49;;;;;;;7.50;5.80;;;;;;;15.92;57.03;99398.05;238531;1192;139134;-59
2022/09/04 00:05:55;;;;;;;8.40;5.70;;;;;;;15.86;57.13;99394.36;238802;1190;139262;-59
2022/09/04 00:11:04;;;;;;;6.90;5.40;;;;;;;15.87;57.28;99394.06;238810;1192;140032;-58
2022/09/04 00:16:15;;;;;;;8.20;6.00;;;;;;;15.92;57.34;99386.75;238726;1192;140494;-59
2022/09/04 00:21:24;;;;;;;8.60;6.10;;;;;;;15.91;57.19;99387.19;238396;1192;139211;-59
2022/09/04 00:26:49;;;;;;;8.00;5.80;;;;;;;15.86;57.33;99397.07;238780;1190;139679;-59
2022/09/04 00:32:12;;;;;;;7.80;6.50;;;;;;;15.78;57.47;99396.91;238936;1191;139409;-58
2022/09/04 00:37:21;;;;;;;6.90;5.80;;;;;;;15.75;57.69;99396.96;238718;1190;142183;-59
2022/09/04 00:42:42;;;;;;;7.00;6.30;;;;;;;15.72;57.68;99394.16;238806;1192;139645;-59
2022/09/04 00:48:17;;;;;;;6.60;5.70;;;;;;;15.67;57.78;99390.13;238765;1191;139455;-58
2022/09/04 00:53:48;;;;;;;7.80;6.50;;;;;;;15.59;57.67;99388.01;238537;1191;139930;-58
2022/09/04 00:59:35;;;;;;;7.00;6.20;;;;;;;15.54;57.92;99389.06;238723;1190;139353;-58
2022/09/04 01:04:49;;;;;;;7.50;6.00;;;;;;;15.45;57.97;99392.99;238859;1190;139438;-59
2022/09/04 01:10:18;;;;;;;7.40;6.10;;;;;;;15.47;58.10;99396.14;238610;1192;139941;-58
2022/09/04 01:15:38;;;;;;;7.10;5.50;;;;;;;15.51;58.21;99393.10;238704;1191;139326;-58
2022/09/04 01:20:46;;;;;;;8.80;6.20;;;;;;;15.50;58.31;99397.46;238714;1191;138997;-58
2022/09/04 01:26:08;;;;;;;7.60;5.80;;;;;;;15.46;58.27;99393.83;238796;1192;139536;-59
2022/09/04 01:31:19;;;;;;;9.10;6.80;;;;;;;15.40;58.22;99391.79;238597;1191;141477;-58
2022/09/04 01:36:37;;;;;;;7.80;6.40;;;;;;;15.33;58.31;99389.79;238807;1191;139024;-55
2022/09/04 01:41:47;;;;;;;10.30;7.00;;;;;;;15.28;58.30;99395.71;238560;1192;140357;-55
2022/09/04 01:46:56;;;;;;;9.10;6.30;;;;;;;15.21;58.39;99398.78;238771;1192;139430;-56
2022/09/04 01:52:20;;;;;;;8.00;6.50;;;;;;;15.12;58.44;99402.80;238655;1192;139187;-56
2022/09/04 01:57:32;;;;;;;8.00;6.40;;;;;;;15.04;58.57;99405.92;238785;1192;139417;-58
2022/09/04 02:02:48;;;;;;;8.60;6.40;;;;;;;15.04;58.64;99406.88;238816;1190;139891;-59
2022/09/04 02:07:55;;;;;;;8.10;6.20;;;;;;;15.08;58.89;99410.30;238973;1190;139522;-57
2022/09/04 02:13:14;;;;;;;8.90;7.00;;;;;;;15.07;58.89;99408.02;238757;1190;138861;-56
2022/09/04 02:18:34;;;;;;;7.40;5.90;;;;;;;15.05;58.84;99418.06;238674;1192;139689;-57
2022/09/04 02:23:50;;;;;;;8.40;6.30;;;;;;;15.02;58.90;99408.45;238829;1190;139516;-58
2022/09/04 02:29:19;;;;;;;7.90;5.90;;;;;;;14.97;58.94;99403.09;238748;1192;140158;-57
2022/09/04 02:34:46;;;;;;;7.90;6.40;;;;;;;14.92;58.97;99405.56;238220;1192;139781;-58
2022/09/04 02:40:15;;;;;;;7.10;5.90;;;;;;;14.86;59.08;99405.15;238615;1192;139538;-58
2022/09/04 02:45:32;;;;;;;7.50;6.00;;;;;;;14.79;59.07;99401.55;238845;1190;140256;-58
2022/09/04 02:50:48;;;;;;;8.70;6.20;;;;;;;14.75;59.24;99399.71;238721;1190;139237;-56
2022/09/04 02:55:56;;;;;;;;;;;;;;;14.73;59.30;99398.27;238662;1191;140536;-56
2022/09/04 03:01:13;;;;;;;7.40;6.30;;;;;;;14.68;59.39;99408.27;238654;1192;125487;-56
2022/09/04 03:06:40;;;;;;;6.90;6.20;;;;;;;14.62;59.56;99413.13;238851;1190;139463;-56
2022/09/04 03:12:01;;;;;;;7.60;6.00;;;;;;;14.61;59.62;99407.48;238712;1190;139333;-57
2022/09/04 03:17:04;;;;;;;9.30;6.50;;;;;;;14.60;59.71;99407.80;238599;1191;140070;-57
2022/09/04 03:22:32;;;;;;;7.40;6.70;;;;;;;14.55;59.66;99398.47;238638;1191;138985;-57
2022/09/04 03:27:35;;;;;;;8.10;6.80;;;;;;;14.53;59.89;99390.25;238530;1192;139219;-57
2022/09/04 03:32:50;;;;;;;8.30;7.20;;;;;;;14.50;59.88;99390.98;238326;1191;142365;-57
2022/09/04 03:38:36;;;;;;;8.30;6.80;;;;;;;14.47;59.94;99400.98;238933;1190;139003;-56
2022/09/04 03:44:02;;;;;;;7.60;6.70;;;;;;;14.48;59.91;99403.61;238892;1190;140594;-55
2022/09/04 03:49:17;;;;;;;7.80;6.60;;;;;;;14.51;60.08;99408.43;238734;1190;139494;-56
2022/09/04 03:55:02;;;;;;;9.10;7.40;;;;;;;14.50;60.07;99414.39;238557;1192;139528;-58
2022/09/04 04:00:17;;;;;;;8.90;7.20;;;;;;;14.45;60.17;99415.40;238557;1191;139288;-58
2022/09/04 04:05:35;;;;;;;10.30;7.00;;;;;;;14.40;60.09;99423.28;238342;1192;140003;-58
2022/09/04 04:11:20;;;;;;;8.10;6.70;;;;;;;14.37;60.22;99423.70;238532;1192;139726;-57
2022/09/04 04:16:50;;;;;;;9.60;7.10;;;;;;;14.34;60.23;99426.38;238414;1190;139173;-59
2022/09/04 04:21:58;;;;;;;8.10;6.70;;;;;;;14.29;60.34;99433.33;238711;1191;140512;-58
2022/09/04 04:27:20;;;;;;;8.00;6.10;;;;;;;14.25;60.43;99433.46;238546;1190;140365;-59
2022/09/04 04:32:44;;;;;;;8.90;6.50;;;;;;;14.27;60.54;99429.58;238714;1191;140023;-58
2022/09/04 04:37:54;;;;;;;10.30;6.70;;;;;;;14.32;60.64;99431.66;238925;1190;140319;-57
2022/09/04 04:43:20;;;;;;;7.30;6.00;;;;;;;14.35;60.71;99441.83;238785;1190;140610;-57
2022/09/04 04:48:35;;;;;;;8.00;6.40;;;;;;;14.38;60.74;99438.64;238683;1192;139275;-58
2022/09/04 04:53:50;;;;;;;7.90;6.30;;;;;;;14.38;60.80;99447.31;238405;1192;140531;-57
2022/09/04 04:59:06;;;;;;;7.40;6.40;;;;;;;14.41;60.89;99451.92;238830;1190;139172;-56
2022/09/04 05:04:24;;;;;;;8.10;5.80;;;;;;;14.44;60.78;99461.02;238786;1190;139812;-56
2022/09/04 05:09:42;;;;;;;7.30;5.70;;;;;;;14.46;60.92;99463.02;238735;1191;139199;-56
2022/09/04 05:14:58;;;;;;;8.80;5.30;;;;;;;14.52;61.19;99468.33;238726;1191;140170;-56
2022/09/04 05:20:16;;;;;;;7.20;5.10;;;;;;;14.64;61.14;99472.46;238835;1191;141823;-56
2022/09/04 05:25:31;;;;;;;8.10;5.80;;;;;;;14.79;61.15;99478.71;238580;1190;139657;-54
2022/09/04 05:31:08;;;;;;;6.70;5.20;;;;;;;14.90;61.04;99477.89;238855;1190;140182;-57
2022/09/04 05:36:24;;;;;;;5.50;5.00;;;;;;;15.03;61.23;99481.27;238706;1190;139839;-55
2022/09/04 05:41:38;;;;;;;6.50;5.00;;;;;;;15.17;61.34;99481.05;238643;1192;139856;-56
2022/09/04 05:46:48;;;;;;;7.20;5.10;;;;;;;15.33;61.24;99484.78;238660;1190;139732;-56
2022/09/04 05:52:06;;;;;;;7.30;5.20;;;;;;;15.40;61.07;99491.94;237882;1192;139997;-58
2022/09/04 05:57:38;;;;;;;5.50;5.00;;;;;;;15.43;60.92;99497.10;238768;1190;139569;-57
2022/09/04 06:03:05;;;;;;;5.90;4.10;;;;;;;15.44;60.80;99505.05;238564;1190;140222;-58
2022/09/04 06:08:14;;;;;;;6.10;4.10;;;;;;;15.52;60.86;99502.99;238851;1190;140372;-58
2022/09/04 06:13:54;;;;;;;5.80;4.30;;;;;;;15.59;60.91;99506.08;238801;1190;140089;-58
2022/09/04 06:19:05;;;;;;;5.30;4.70;;;;;;;15.66;61.00;99504.98;238272;1192;140479;-58
2022/09/04 06:24:45;;;;;;;5.00;4.40;;;;;;;15.73;60.93;99511.84;238409;1192;140241;-59
2022/09/04 06:30:03;;;;;;;5.80;4.40;;;;;;;15.76;60.78;99516.25;238055;1191;140027;-59
2022/09/04 06:35:26;;;;;;;5.70;4.10;;;;;;;15.78;60.92;99518.41;238539;1191;139303;-58
2022/09/04 06:40:47;;;;;;;5.60;4.30;;;;;;;15.82;60.74;99520.10;238745;1190;139689;-58
2022/09/04 06:46:03;;;;;;;5.20;4.30;;;;;;;15.83;60.96;99527.66;238811;1190;140258;-59
2022/09/04 06:51:25;;;;;;;;;;;;;;;15.86;61.04;99534.61;238694;1191;140570;-59
2022/09/04 06:56:28;;;;;;;7.70;4.30;;;;;;;15.92;60.93;99541.72;238997;1191;126317;-59
2022/09/04 07:01:59;;;;;;;5.10;4.00;;;;;;;15.99;61.17;99533.86;238611;1191;141619;-57
2022/09/04 07:07:47;;;;;;;5.90;4.10;;;;;;;16.04;60.86;99537.70;238651;1191;139879;-59
2022/09/04 07:13:15;;;;;;;4.20;3.60;;;;;;;16.09;61.02;99537.85;237999;1191;140376;-58
2022/09/04 07:18:42;;;;;;;5.00;4.30;;;;;;;16.12;60.91;99539.80;238754;1190;139817;-58
2022/09/04 07:24:07;;;;;;;5.00;3.90;;;;;;;16.14;61.00;99538.36;238229;1190;140910;-59
2022/09/04 07:29:31;;;;;;;5.00;3.80;;;;;;;16.16;60.95;99540.91;238654;1190;140992;-59
2022/09/04 07:34:54;;;;;;;4.60;4.10;;;;;;;16.15;60.93;99535.80;237906;1192;139625;-60
2022/09/04 07:40:26;;;;;;;3.70;3.10;;;;;;;16.18;60.97;99532.56;238780;1190;140123;-58
2022/09/04 07:45:38;;;;;;;5.30;4.00;;;;;;;16.27;61.21;99540.80;238529;1190;139462;-58
2022/09/04 07:51:08;;;;;;;6.10;4.00;;;;;;;16.39;61.24;99543.08;238585;1190;140446;-58
2022/09/04 07:56:34;;;;;;;165.10;110.00;;;;;;;16.51;61.23;99545.36;238816;1192;140125;-58
2022/09/04 08:02:12;;;;;;;11.00;7.60;;;;;;;16.69;61.50;99547.70;238996;1190;141131;-58
2022/09/04 08:07:37;;;;;;;6.80;4.90;;;;;;;16.93;61.29;99543.72;238576;1190;139828;-59
2022/09/04 08:12:55;;;;;;;6.40;4.90;;;;;;;17.02;60.98;99552.64;238762;1192;141434;-58
2022/09/04 08:18:27;;;;;;;5.00;4.30;;;;;;;17.03;60.86;99567.97;238732;1190;139933;-58
2022/09/04 08:24:05;;;;;;;5.90;4.70;;;;;;;17.06;60.64;99570.98;238796;1190;139707;-59
2022/09/04 08:29:30;;;;;;;7.80;4.30;;;;;;;17.15;60.73;99571.48;238411;1190;140411;-59
2022/09/04 08:35:02;;;;;;;5.60;4.00;;;;;;;17.27;60.88;99570.39;238663;1190;139957;-58
2022/09/04 08:40:24;;;;;;;5.30;4.60;;;;;;;17.42;60.67;99581.84;238691;1190;140002;-58
2022/09/04 08:45:42;;;;;;;87.20;62.70;;;;;;;17.59;60.58;99588.20;238674;1191;140329;-59
2022/09/04 08:51:17;;;;;;;7.30;5.20;;;;;;;17.82;60.74;99590.39;238757;1190;140263;-58
2022/09/04 08:56:28;;;;;;;8.10;4.70;;;;;;;18.05;60.64;99592.66;238944;1190;139678;-57
2022/09/04 09:02:02;;;;;;;5.90;4.60;;;;;;;18.36;60.87;99592.02;238721;1190;141274;-58
2022/09/04 09:07:26;;;;;;;6.00;4.10;;;;;;;18.62;60.39;99595.97;238722;1191;140273;-59
2022/09/04 09:13:05;;;;;;;7.60;5.10;;;;;;;18.80;59.85;99597.17;238734;1190;140127;-58
2022/09/04 09:18:34;;;;;;;8.10;4.60;;;;;;;18.97;59.79;99593.71;238772;1190;140008;-59
2022/09/04 09:24:17;;;;;;;5.50;4.50;;;;;;;19.22;59.43;99596.55;238600;1192;140712;-58
2022/09/04 09:29:51;;;;;;;4.90;4.30;;;;;;;19.33;58.82;99597.73;238427;1191;139244;-59
2022/09/04 09:35:07;;;;;;;5.10;4.60;;;;;;;19.24;58.22;99602.45;238357;1192;139935;-58
2022/09/04 09:40:21;;;;;;;5.00;4.40;;;;;;;19.16;58.16;99611.28;238781;1191;140454;-57
2022/09/04 09:45:59;;;;;;;7.00;4.90;;;;;;;19.10;58.12;99615.02;238647;1191;139655;-58
2022/09/04 09:51:21;;;;;;;9.30;3.90;;;;;;;19.05;58.12;99614.61;238415;1191;140663;-60
2022/09/04 09:57:01;;;;;;;4.90;4.20;;;;;;;19.02;57.87;99619.71;238928;1191;140070;-58
2022/09/04 10:03:02;;;;;;;4.70;3.90;;;;;;;18.99;58.00;99618.91;238937;1190;140873;-58
2022/09/04 10:08:21;;;;;;;5.50;4.00;;;;;;;18.97;57.98;99617.16;238779;1191;140598;-58
2022/09/04 10:14:05;;;;;;;4.80;3.80;;;;;;;19.01;58.07;99617.13;238732;1190;142764;-58
2022/09/04 10:19:47;;;;;;;5.30;3.90;;;;;;;18.99;57.72;99612.63;238784;1190;140258;-57
2022/09/04 10:25:12;;;;;;;5.80;4.10;;;;;;;19.00;57.84;99612.39;238566;1192;141095;-57
2022/09/04 10:30:45;;;;;;;4.90;3.80;;;;;;;19.06;57.98;99609.45;238579;1192;139405;-57
2022/09/04 10:36:17;;;;;;;4.30;3.80;;;;;;;19.19;58.00;99622.94;238630;1192;140718;-58
2022/09/04 10:41:44;;;;;;;6.60;3.40;;;;;;;19.32;58.02;99623.85;238763;1191;139199;-58
2022/09/04 10:47:26;;;;;;;9.40;4.00;;;;;;;19.46;57.77;99626.76;238167;1190;142069;-57
2022/09/04 10:52:46;;;;;;;4.20;3.50;;;;;;;19.56;57.50;99630.38;238835;1190;139085;-58
2022/09/04 10:58:03;;;;;;;5.20;3.40;;;;;;;19.75;57.55;99630.31;238721;1191;139953;-58
2022/09/04 11:03:42;;;;;;;4.00;3.40;;;;;;;20.07;57.54;99627.05;238593;1192;141696;-58
2022/09/04 11:09:12;;;;;;;4.50;3.30;;;;;;;20.36;57.36;99624.84;238878;1191;140241;-58
2022/09/04 11:14:32;;;;;;;3.70;3.40;;;;;;;20.67;56.98;99616.23;238880;1190;142030;-58
2022/09/04 11:19:53;;;;;;;5.80;3.20;;;;;;;20.70;56.19;99618.98;238704;1191;139975;-58
2022/09/04 11:25:08;;;;;;;4.40;3.00;;;;;;;20.74;55.91;99619.68;238810;1190;139199;-58
2022/09/04 11:30:20;;;;;;;3.60;2.80;;;;;;;20.83;55.63;99621.20;238849;1191;140565;-58
2022/09/04 11:36:04;;;;;;;4.30;2.80;;;;;;;20.89;55.70;99624.09;238622;1192;139293;-57
2022/09/04 11:41:30;;;;;;;5.20;3.60;;;;;;;21.00;55.49;99620.98;238628;1192;140141;-58
2022/09/04 11:47:05;;;;;;;5.20;3.10;;;;;;;21.16;55.41;99618.16;238709;1191;139081;-58
2022/09/04 11:52:38;;;;;;;4.30;3.20;;;;;;;21.35;55.02;99615.81;238774;1192;140520;-59
2022/09/04 11:57:59;;;;;;;3.80;3.00;;;;;;;21.70;55.15;99602.12;238582;1191;140317;-57
2022/09/04 12:03:17;;;;;;;2.80;2.60;;;;;;;21.84;54.69;99596.34;238660;1192;152535;-59
2022/09/04 12:08:58;;;;;;;4.70;2.80;;;;;;;21.89;54.55;99593.30;238892;1191;140538;-56
2022/09/04 12:14:39;;;;;;;4.80;2.50;;;;;;;22.16;54.65;99587.90;238650;1192;140387;-57
2022/09/04 12:19:51;;;;;;;5.20;2.30;;;;;;;22.56;54.16;99594.84;238753;1190;140678;-58
2022/09/04 12:25:09;;;;;;;4.00;2.20;;;;;;;22.53;53.45;99599.70;238664;1191;140791;-59
2022/09/04 12:30:22;;;;;;;3.70;2.70;;;;;;;22.39;53.24;99604.20;238579;1191;140655;-59
2022/09/04 12:35:43;;;;;;;4.80;2.30;;;;;;;22.28;53.12;99599.88;238806;1190;141129;-58
2022/09/04 12:41:00;;;;;;;12.30;3.90;;;;;;;22.24;53.17;99598.00;238801;1190;140315;-56
2022/09/04 12:46:21;;;;;;;2.90;2.30;;;;;;;22.59;53.63;99594.17;238777;1190;140159;-58
2022/09/04 12:51:34;;;;;;;22.70;8.90;;;;;;;23.24;53.59;99586.85;238573;1192;140773;-58
2022/09/04 12:57:14;;;;;;;29.70;18.50;;;;;;;23.48;52.44;99588.98;238838;1190;140361;-59
2022/09/04 13:02:37;;;;;;;16.90;10.00;;;;;;;23.32;51.75;99588.16;238227;1190;140903;-59
2022/09/04 13:08:05;;;;;;;27.50;14.30;;;;;;;23.25;51.76;99589.95;238619;1190;139928;-59
2022/09/04 13:13:23;;;;;;;26.80;15.10;;;;;;;23.28;51.69;99589.45;238782;1191;140812;-58
2022/09/04 13:19:01;;;;;;;11.20;6.50;;;;;;;23.20;51.57;99589.29;238370;1192;139588;-58
2022/09/04 13:24:25;;;;;;;14.80;9.30;;;;;;;23.25;51.74;99585.70;238671;1192;140011;-58
2022/09/04 13:29:57;;;;;;;4.60;3.00;;;;;;;23.49;51.70;99592.36;238577;1191;140954;-58
2022/09/04 13:35:14;;;;;;;7.20;5.00;;;;;;;23.51;51.19;99593.89;238623;1192;139949;-58
2022/09/04 13:40:34;;;;;;;6.40;3.50;;;;;;;23.32;51.06;99597.75;238798;1190;140239;-59
2022/09/04 13:45:45;;;;;;;2.90;2.20;;;;;;;23.13;50.90;99607.61;238732;1190;139739;-59
2022/09/04 13:50:54;;;;;;;4.50;2.50;;;;;;;22.94;50.98;99607.80;238707;1191;139660;-58
2022/09/04 13:56:02;;;;;;;3.20;2.60;;;;;;;22.79;51.00;99608.91;238460;1192;140485;-58
2022/09/04 14:01:12;;;;;;;4.30;2.80;;;;;;;22.66;50.97;99610.79;238607;1190;140533;-59
2022/09/04 14:06:19;;;;;;;3.40;2.50;;;;;;;22.54;51.17;99604.29;238708;1192;140998;-57
2022/09/04 14:11:36;;;;;;;4.90;2.30;;;;;;;22.44;51.35;99606.89;238627;1192;139347;-60
2022/09/04 14:16:40;;;;;;;4.40;2.40;;;;;;;22.32;51.26;99605.61;238653;1190;140324;-57
2022/09/04 14:22:22;;;;;;;3.50;2.80;;;;;;;22.20;51.30;99608.65;238692;1190;141278;-60
2022/09/04 14:27:34;;;;;;;10.80;6.30;;;;;;;22.07;51.52;99604.73;238579;1192;139721;-57
2022/09/04 14:33:10;;;;;;;5.20;3.90;;;;;;;22.01;51.45;99608.08;238883;1191;140156;-60
2022/09/04 14:38:23;;;;;;;20.70;15.30;;;;;;;21.90;51.32;99615.25;238777;1190;139541;-56
2022/09/04 14:43:47;;;;;;;6.00;4.10;;;;;;;21.82;51.43;99617.55;238746;1192;140681;-58
2022/09/04 14:49:00;;;;;;;7.80;5.70;;;;;;;21.71;51.51;99618.76;238543;1190;139485;-59
2022/09/04 14:54:06;;;;;;;7.20;5.20;;;;;;;21.60;51.68;99617.35;238403;1192;141891;-58
2022/09/04 14:59:12;;;;;;;;;;;;;;;21.48;52.02;99614.23;238647;1192;139808;-58
2022/09/04 15:04:25;;;;;;;31.30;18.80;;;;;;;21.41;52.39;99620.52;238952;1190;126506;-56
2022/09/04 15:09:39;;;;;;;5.80;5.10;;;;;;;21.38;52.64;99625.45;238648;1190;140736;-59
2022/09/04 15:14:47;;;;;;;6.70;4.70;;;;;;;21.21;52.76;99628.77;238869;1190;140179;-58
2022/09/04 15:20:06;;;;;;;8.80;5.10;;;;;;;21.01;53.10;99631.69;238711;1191;139967;-60
2022/09/04 15:25:49;;;;;;;6.70;6.00;;;;;;;20.80;53.34;99633.39;238692;1190;140638;-59
2022/09/04 15:31:05;;;;;;;7.10;5.50;;;;;;;20.57;53.95;99635.71;238632;1192;140143;-59
2022/09/04 15:36:14;;;;;;;9.40;5.70;;;;;;;20.42;54.32;99632.23;238601;1190;140279;-60
2022/09/04 15:41:41;;;;;;;9.40;5.50;;;;;;;20.35;54.74;99633.65;238626;1190;139516;-60
2022/09/04 15:47:03;;;;;;;7.60;5.70;;;;;;;20.34;55.04;99635.73;238754;1192;139065;-58
2022/09/04 15:52:19;;;;;;;7.40;5.80;;;;;;;20.39;55.23;99640.48;238450;1191;140108;-58
2022/09/04 15:57:45;;;;;;;8.10;4.90;;;;;;;20.43;55.39;99637.27;238588;1192;139801;-59
2022/09/04 16:02:57;;;;;;;;;;;;;;;20.47;55.65;99637.14;238763;1192;140309;-58
2022/09/04 16:08:19;;;;;;;6.60;5.80;;;;;;;20.47;55.82;99641.66;238661;1192;125986;-58
2022/09/04 16:13:25;;;;;;;7.50;6.40;;;;;;;20.50;56.08;99640.18;238764;1190;139295;-59
2022/09/04 16:18:37;;;;;;;7.70;5.80;;;;;;;20.48;56.22;99645.38;238747;1190;140131;-59
2022/09/04 16:23:41;;;;;;;6.50;5.80;;;;;;;20.38;56.39;99639.80;238479;1192;139223;-59
2022/09/04 16:28:51;;;;;;;7.60;6.50;;;;;;;20.30;56.70;99636.27;238481;1192;140600;-57
2022/09/04 16:34:06;;;;;;;6.50;5.10;;;;;;;20.23;57.04;99641.39;238757;1190;139255;-57
2022/09/04 16:39:40;;;;;;;9.50;6.30;;;;;;;20.28;57.52;99648.14;238795;1190;139794;-56
2022/09/04 16:44:51;;;;;;;8.10;6.20;;;;;;;20.36;57.64;99654.70;238788;1191;139962;-58
2022/09/04 16:50:28;;;;;;;8.40;6.40;;;;;;;20.37;57.71;99657.61;238584;1190;139217;-57
2022/09/04 16:55:42;;;;;;;9.50;6.90;;;;;;;20.39;57.70;99658.70;238498;1189;139962;-58
2022/09/04 17:00:57;;;;;;;10.40;6.70;;;;;;;20.35;57.65;99665.33;238735;1190;139865;-58
2022/09/04 17:06:28;;;;;;;8.80;6.00;;;;;;;20.32;57.64;99670.87;238663;1190;140086;-58
2022/09/04 17:11:41;;;;;;;;;;;;;;;20.22;57.47;99675.22;238562;1190;139564;-58
2022/09/04 17:16:52;;;;;;;8.90;7.30;;;;;;;20.10;57.59;99676.84;238808;1190;125946;-58
2022/09/04 17:28:11;;;;;;;9.80;6.70;;;;;;;19.98;57.99;99690.36;238363;1191;139840;-58
2022/09/04 17:33:46;;;;;;;12.10;7.10;;;;;;;19.98;58.21;99690.88;238635;1190;139664;-58
2022/09/04 17:39:17;;;;;;;120.90;103.00;;;;;;;20.00;58.56;99698.23;238787;1190;140208;-59
2022/09/04 17:45:14;;;;;;;26.30;21.90;;;;;;;20.04;58.92;99707.80;238490;1191;140121;-57
2022/09/04 17:50:21;;;;;;;14.40;10.50;;;;;;;20.09;58.92;99715.11;238645;1190;141336;-57
2022/09/04 17:55:27;;;;;;;8.60;6.70;;;;;;;20.07;59.03;99715.66;238557;1190;140223;-58
2022/09/04 18:00:56;;;;;;;7.50;6.70;;;;;;;20.08;59.34;99722.26;238714;1191;139902;-58
2022/09/04 18:06:22;;;;;;;13.40;9.60;;;;;;;20.15;59.30;99722.94;238378;1191;140596;-58
2022/09/04 18:11:31;;;;;;;10.00;7.60;;;;;;;20.28;59.67;99731.03;238631;1191;140240;-58
2022/09/04 18:16:56;;;;;;;13.40;10.00;;;;;;;20.32;59.55;99736.09;238739;1190;139813;-58
2022/09/04 18:22:38;;;;;;;8.00;6.60;;;;;;;20.37;59.37;99740.52;238796;1190;139790;-57
2022/09/04 18:27:53;;;;;;;9.40;6.60;;;;;;;20.32;59.26;99750.86;238667;1191;139946;-57
2022/09/04 18:33:27;;;;;;;8.60;7.10;;;;;;;20.26;59.47;99752.88;238605;1191;139515;-55
2022/09/04 18:39:01;;;;;;;9.60;6.80;;;;;;;20.24;59.69;99757.17;238532;1191;140302;-58
2022/09/04 18:44:19;;;;;;;9.30;6.80;;;;;;;20.26;59.69;99763.14;238563;1191;140422;-55
2022/09/04 18:49:50;;;;;;;10.20;6.30;;;;;;;20.23;59.63;99772.45;238743;1192;139443;-58
2022/09/04 18:55:19;;;;;;;9.60;6.60;;;;;;;20.23;59.75;99776.38;238565;1191;141137;-57
2022/09/04 19:00:29;;;;;;;240.20;183.40;;;;;;;20.26;59.80;99776.63;238739;1191;139724;-58
2022/09/04 19:05:36;;;;;;;11.20;8.70;;;;;;;20.24;59.84;99777.34;238482;1192;143396;-58
2022/09/04 19:10:53;;;;;;;10.60;7.40;;;;;;;20.17;59.66;99773.85;238477;1190;139359;-56
2022/09/04 19:16:00;;;;;;;9.60;7.10;;;;;;;20.05;59.65;99775.96;238462;1191;140016;-57
2022/09/04 19:21:09;;;;;;;9.20;6.80;;;;;;;19.94;59.85;99777.86;238605;1191;139272;-57
2022/09/04 19:26:27;;;;;;;12.50;6.80;;;;;;;19.84;60.06;99779.13;238661;1191;140231;-58
2022/09/04 19:31:39;;;;;;;8.20;6.10;;;;;;;19.79;60.15;99781.95;238477;1191;141598;-58
2022/09/04 19:36:58;;;;;;;8.40;6.10;;;;;;;19.76;60.28;99786.52;238634;1190;139557;-58
2022/09/04 19:42:26;;;;;;;7.70;5.90;;;;;;;19.73;60.35;99786.22;238639;1192;139924;-54
2022/09/04 19:48:06;;;;;;;6.80;5.90;;;;;;;19.70;60.38;99791.18;238350;1192;139176;-57
2022/09/04 19:53:32;;;;;;;9.00;6.40;;;;;;;19.65;60.36;99796.17;238372;1192;140405;-56
2022/09/04 19:58:54;;;;;;;9.20;6.10;;;;;;;19.59;60.37;99797.89;238777;1190;140242;-58
2022/09/04 20:04:08;;;;;;;9.00;6.20;;;;;;;19.54;60.21;99799.95;238698;1190;138997;-58
2022/09/04 20:09:50;;;;;;;7.70;5.30;;;;;;;19.49;60.29;99802.02;238786;1190;139641;-58
2022/09/04 20:15:16;;;;;;;7.80;5.90;;;;;;;19.48;60.28;99804.23;238348;1192;139907;-58
2022/09/04 20:20:43;;;;;;;8.60;5.50;;;;;;;19.48;60.35;99805.15;238668;1190;139204;-57
2022/09/04 20:25:56;;;;;;;10.60;5.90;;;;;;;19.47;60.27;99806.36;238571;1191;141009;-56
2022/09/04 20:31:23;;;;;;;8.70;5.70;;;;;;;19.42;60.18;99809.98;238597;1190;140338;-59
2022/09/04 20:36:47;;;;;;;9.30;4.90;;;;;;;19.38;60.21;99810.50;238636;1190;139368;-59
2022/09/04 20:42:03;;;;;;;5.80;5.10;;;;;;;19.34;60.16;99808.50;238573;1191;139646;-60
2022/09/04 20:47:29;;;;;;;5.90;4.60;;;;;;;19.30;60.07;99811.20;238526;1190;139700;-58
2022/09/04 20:53:04;;;;;;;7.20;5.00;;;;;;;19.29;60.09;99809.33;238753;1191;140113;-59
2022/09/04 20:58:31;;;;;;;7.90;5.20;;;;;;;19.29;59.91;99805.20;238770;1190;139601;-57
2022/09/04 21:04:07;;;;;;;10.00;5.20;;;;;;;19.27;59.92;99808.58;238616;1192;139479;-56
2022/09/04 21:09:25;;;;;;;6.90;4.40;;;;;;;19.25;59.82;99812.22;238907;1190;139989;-58
2022/09/04 21:14:35;;;;;;;8.90;5.10;;;;;;;19.20;59.82;99817.81;238990;1190;140790;-58
2022/09/04 21:19:56;;;;;;;8.90;4.90;;;;;;;19.14;59.74;99825.33;238518;1191;139580;-59
2022/09/04 21:25:32;;;;;;;10.20;4.80;;;;;;;19.07;59.81;99824.48;238575;1192;139198;-58
2022/09/04 21:30:53;;;;;;;7.90;4.30;;;;;;;19.00;59.75;99830.84;238436;1191;139886;-58
2022/09/04 21:36:22;;;;;;;6.80;4.50;;;;;;;18.99;59.73;99839.27;238512;1192;140792;-58
2022/09/04 21:41:49;;;;;;;8.10;4.70;;;;;;;18.97;59.78;99838.52;238830;1190;139415;-58
2022/09/04 21:47:20;;;;;;;5.80;4.70;;;;;;;18.91;59.48;99841.66;238817;1190;140721;-57
2022/09/04 21:53:00;;;;;;;5.20;4.20;;;;;;;18.82;59.36;99844.77;238695;1190;139592;-55
2022/09/04 21:58:38;;;;;;;6.40;3.90;;;;;;;18.69;59.43;99845.66;238729;1190;140625;-56
2022/09/04 22:04:24;;;;;;;5.80;4.10;;;;;;;18.55;59.37;99852.34;238841;1190;139258;-57
2022/09/04 22:09:27;;;;;;;5.90;4.30;;;;;;;18.44;59.42;99851.50;238679;1190;139461;-57
2022/09/04 22:14:55;;;;;;;6.40;4.30;;;;;;;18.33;59.34;99851.15;238607;1192;139758;-60
2022/09/04 22:20:01;;;;;;;6.00;3.80;;;;;;;18.23;59.43;99850.67;238682;1191;139594;-58
2022/09/04 22:25:25;;;;;;;5.60;4.20;;;;;;;18.17;59.46;99851.65;238635;1191;140836;-57
2022/09/04 22:30:43;;;;;;;5.50;4.20;;;;;;;18.11;59.28;99850.88;238562;1191;140894;-57
2022/09/04 22:36:12;;;;;;;10.20;4.20;;;;;;;18.05;59.49;99849.27;238698;1191;139919;-57
2022/09/04 22:41:40;;;;;;;6.60;4.10;;;;;;;17.98;59.67;99856.12;238432;1192;139732;-58
2022/09/04 22:47:24;;;;;;;4.60;4.00;;;;;;;17.89;59.67;99863.60;238744;1191;140574;-57
2022/09/04 22:52:39;;;;;;;6.50;4.40;;;;;;;17.77;59.72;99871.59;238868;1190;140843;-59
2022/09/04 22:58:25;;;;;;;6.20;3.80;;;;;;;17.68;59.76;99870.65;238741;1190;140305;-59
2022/09/04 23:04:02;;;;;;;5.50;4.10;;;;;;;17.60;59.87;99872.30;238719;1192;140306;-60
2022/09/04 23:09:25;;;;;;;6.90;3.50;;;;;;;17.53;59.90;99877.54;238839;1190;139208;-59
2022/09/04 23:15:06;;;;;;;8.50;4.40;;;;;;;17.50;60.07;99885.14;238925;1191;141745;-56
2022/09/04 23:20:37;;;;;;;5.10;4.00;;;;;;;17.47;59.97;99885.85;238817;1192;139134;-59
2022/09/04 23:26:16;;;;;;;4.30;3.70;;;;;;;17.45;60.08;99883.20;238660;1191;139235;-58
2022/09/04 23:31:50;;;;;;;5.30;3.90;;;;;;;17.45;60.03;99875.67;238673;1191;139457;-58
2022/09/04 23:37:42;;;;;;;5.20;3.80;;;;;;;17.49;60.07;99875.85;238421;1190;139256;-57
2022/09/04 23:43:19;;;;;;;7.60;4.00;;;;;;;17.46;59.91;99882.38;238787;1190;139463;-58
2022/09/04 23:48:57;;;;;;;5.10;4.10;;;;;;;17.42;59.89;99881.77;238721;1190;139370;-58
2022/09/04 23:55:14;;;;;;;6.70;3.90;;;;;;;17.40;59.87;99876.80;238891;1190;140502;-58
